sensor_id;sensor_type;location;lat;lon;timestamp;temperature;humidity
25871;DHT22;13689;48.590;7.752;2023-05-10T00:00:28;16.50;88.50
25871;DHT22;13689;48.590;7.752;2023-05-10T00:02:54;16.50;88.70
25871;DHT22;13689;48.590;7.752;2023-05-10T00:05:19;16.50;88.80
25871;DHT22;13689;48.590;7.752;2023-05-10T00:07:45;16.50;88.90
25871;DHT22;13689;48.590;7.752;2023-05-10T00:10:10;16.50;88.80
25871;DHT22;13689;48.590;7.752;2023-05-10T00:12:36;16.50;88.80
25871;DHT22;13689;48.590;7.752;2023-05-10T00:15:01;16.50;88.50
25871;DHT22;13689;48.590;7.752;2023-05-10T00:17:28;16.50;88.70
25871;DHT22;13689;48.590;7.752;2023-05-10T00:19:53;16.50;88.40
25871;DHT22;13689;48.590;7.752;2023-05-10T00:22:19;16.50;88.50
25871;DHT22;13689;48.590;7.752;2023-05-10T00:24:45;16.40;88.80
25871;DHT22;13689;48.590;7.752;2023-05-10T00:27:11;16.50;89.00
25871;DHT22;13689;48.590;7.752;2023-05-10T00:29:36;16.50;88.70
25871;DHT22;13689;48.590;7.752;2023-05-10T00:32:02;16.50;88.60
25871;DHT22;13689;48.590;7.752;2023-05-10T00:34:27;16.50;88.60
25871;DHT22;13689;48.590;7.752;2023-05-10T00:36:52;16.50;88.50
25871;DHT22;13689;48.590;7.752;2023-05-10T00:39:18;16.50;88.50
25871;DHT22;13689;48.590;7.752;2023-05-10T00:41:43;16.50;88.20
25871;DHT22;13689;48.590;7.752;2023-05-10T00:44:09;16.50;88.20
25871;DHT22;13689;48.590;7.752;2023-05-10T00:46:35;16.50;88.20
25871;DHT22;13689;48.590;7.752;2023-05-10T00:49:01;16.50;88.20
25871;DHT22;13689;48.590;7.752;2023-05-10T00:51:26;16.40;88.00
25871;DHT22;13689;48.590;7.752;2023-05-10T00:53:52;16.50;87.90
25871;DHT22;13689;48.590;7.752;2023-05-10T00:56:17;16.50;88.00
25871;DHT22;13689;48.590;7.752;2023-05-10T00:58:43;16.40;88.00
25871;DHT22;13689;48.590;7.752;2023-05-10T01:01:09;16.50;87.90
25871;DHT22;13689;48.590;7.752;2023-05-10T01:03:34;16.50;87.80
25871;DHT22;13689;48.590;7.752;2023-05-10T01:06:01;16.50;87.70
25871;DHT22;13689;48.590;7.752;2023-05-10T01:08:26;16.40;87.60
25871;DHT22;13689;48.590;7.752;2023-05-10T01:10:52;16.40;87.60
25871;DHT22;13689;48.590;7.752;2023-05-10T01:13:23;16.50;87.70
25871;DHT22;13689;48.590;7.752;2023-05-10T01:15:50;16.50;87.60
25871;DHT22;13689;48.590;7.752;2023-05-10T01:18:16;16.40;87.60
25871;DHT22;13689;48.590;7.752;2023-05-10T01:20:45;16.50;87.60
25871;DHT22;13689;48.590;7.752;2023-05-10T01:23:28;16.50;87.70
25871;DHT22;13689;48.590;7.752;2023-05-10T01:28:51;16.50;87.50
25871;DHT22;13689;48.590;7.752;2023-05-10T01:36:38;16.60;87.50
25871;DHT22;13689;48.590;7.752;2023-05-10T01:39:20;16.60;87.40
25871;DHT22;13689;48.590;7.752;2023-05-10T01:41:55;16.60;87.20
25871;DHT22;13689;48.590;7.752;2023-05-10T01:44:28;16.60;87.20
25871;DHT22;13689;48.590;7.752;2023-05-10T01:46:58;16.60;87.10
25871;DHT22;13689;48.590;7.752;2023-05-10T01:49:26;16.60;87.10
25871;DHT22;13689;48.590;7.752;2023-05-10T01:51:55;16.50;87.00
25871;DHT22;13689;48.590;7.752;2023-05-10T01:54:23;16.50;87.10
25871;DHT22;13689;48.590;7.752;2023-05-10T01:56:55;16.40;87.10
25871;DHT22;13689;48.590;7.752;2023-05-10T01:59:21;16.40;87.30
25871;DHT22;13689;48.590;7.752;2023-05-10T02:01:47;16.40;87.30
25871;DHT22;13689;48.590;7.752;2023-05-10T02:04:15;16.40;87.40
25871;DHT22;13689;48.590;7.752;2023-05-10T02:06:41;16.40;87.50
25871;DHT22;13689;48.590;7.752;2023-05-10T02:09:07;16.40;87.60
25871;DHT22;13689;48.590;7.752;2023-05-10T02:11:34;16.40;87.50
25871;DHT22;13689;48.590;7.752;2023-05-10T02:13:59;16.40;87.30
25871;DHT22;13689;48.590;7.752;2023-05-10T02:16:26;16.40;87.30
25871;DHT22;13689;48.590;7.752;2023-05-10T02:18:51;16.40;87.40
25871;DHT22;13689;48.590;7.752;2023-05-10T02:21:20;16.40;87.50
25871;DHT22;13689;48.590;7.752;2023-05-10T02:23:46;16.40;87.40
25871;DHT22;13689;48.590;7.752;2023-05-10T02:26:12;16.40;87.30
25871;DHT22;13689;48.590;7.752;2023-05-10T02:28:38;16.40;87.20
25871;DHT22;13689;48.590;7.752;2023-05-10T02:31:05;16.40;87.20
25871;DHT22;13689;48.590;7.752;2023-05-10T02:33:31;16.40;87.10
25871;DHT22;13689;48.590;7.752;2023-05-10T02:35:57;16.40;86.80
25871;DHT22;13689;48.590;7.752;2023-05-10T02:38:23;16.40;86.90
25871;DHT22;13689;48.590;7.752;2023-05-10T02:40:50;16.40;86.90
25871;DHT22;13689;48.590;7.752;2023-05-10T02:43:16;16.40;87.00
25871;DHT22;13689;48.590;7.752;2023-05-10T02:45:42;16.40;86.90
25871;DHT22;13689;48.590;7.752;2023-05-10T02:48:08;16.40;87.00
25871;DHT22;13689;48.590;7.752;2023-05-10T02:50:33;16.40;86.90
25871;DHT22;13689;48.590;7.752;2023-05-10T02:53:01;16.40;86.90
25871;DHT22;13689;48.590;7.752;2023-05-10T02:55:29;16.40;86.90
25871;DHT22;13689;48.590;7.752;2023-05-10T02:57:58;16.40;86.80
25871;DHT22;13689;48.590;7.752;2023-05-10T03:00:24;16.40;86.80
25871;DHT22;13689;48.590;7.752;2023-05-10T03:02:50;16.40;86.60
25871;DHT22;13689;48.590;7.752;2023-05-10T03:05:15;16.40;86.60
25871;DHT22;13689;48.590;7.752;2023-05-10T03:07:41;16.40;86.60
25871;DHT22;13689;48.590;7.752;2023-05-10T03:10:06;16.40;86.60
25871;DHT22;13689;48.590;7.752;2023-05-10T03:15:10;16.40;86.30
25871;DHT22;13689;48.590;7.752;2023-05-10T03:17:47;16.30;86.00
25871;DHT22;13689;48.590;7.752;2023-05-10T03:20:16;16.20;86.50
25871;DHT22;13689;48.590;7.752;2023-05-10T03:22:47;16.30;86.50
25871;DHT22;13689;48.590;7.752;2023-05-10T03:25:14;16.20;86.30
25871;DHT22;13689;48.590;7.752;2023-05-10T03:27:41;16.20;86.30
25871;DHT22;13689;48.590;7.752;2023-05-10T03:30:07;16.20;86.40
25871;DHT22;13689;48.590;7.752;2023-05-10T03:32:33;16.10;86.50
25871;DHT22;13689;48.590;7.752;2023-05-10T03:35:00;16.10;86.70
25871;DHT22;13689;48.590;7.752;2023-05-10T03:37:25;16.20;86.80
25871;DHT22;13689;48.590;7.752;2023-05-10T03:39:50;16.20;86.70
25871;DHT22;13689;48.590;7.752;2023-05-10T03:42:16;16.20;86.60
25871;DHT22;13689;48.590;7.752;2023-05-10T03:44:43;16.10;86.60
25871;DHT22;13689;48.590;7.752;2023-05-10T03:47:08;16.10;86.70
25871;DHT22;13689;48.590;7.752;2023-05-10T03:49:34;16.10;86.60
25871;DHT22;13689;48.590;7.752;2023-05-10T03:51:59;16.10;86.70
25871;DHT22;13689;48.590;7.752;2023-05-10T03:54:25;16.10;86.50
25871;DHT22;13689;48.590;7.752;2023-05-10T03:56:50;16.00;86.50
25871;DHT22;13689;48.590;7.752;2023-05-10T03:59:16;16.00;86.80
25871;DHT22;13689;48.590;7.752;2023-05-10T04:01:41;15.90;86.90
25871;DHT22;13689;48.590;7.752;2023-05-10T04:04:07;15.90;86.80
25871;DHT22;13689;48.590;7.752;2023-05-10T04:06:32;15.90;86.80
25871;DHT22;13689;48.590;7.752;2023-05-10T04:08:58;15.80;86.60
25871;DHT22;13689;48.590;7.752;2023-05-10T04:11:25;15.80;86.90
25871;DHT22;13689;48.590;7.752;2023-05-10T04:13:51;15.80;86.70
25871;DHT22;13689;48.590;7.752;2023-05-10T04:16:16;15.90;86.80
25871;DHT22;13689;48.590;7.752;2023-05-10T04:18:42;15.90;87.00
25871;DHT22;13689;48.590;7.752;2023-05-10T04:21:11;15.90;86.90
25871;DHT22;13689;48.590;7.752;2023-05-10T04:23:36;15.90;86.80
25871;DHT22;13689;48.590;7.752;2023-05-10T04:26:02;16.00;86.80
25871;DHT22;13689;48.590;7.752;2023-05-10T04:28:28;16.00;86.60
25871;DHT22;13689;48.590;7.752;2023-05-10T04:30:59;16.00;86.60
25871;DHT22;13689;48.590;7.752;2023-05-10T04:33:25;15.90;86.50
25871;DHT22;13689;48.590;7.752;2023-05-10T04:35:51;15.90;86.70
25871;DHT22;13689;48.590;7.752;2023-05-10T04:38:16;15.90;86.80
25871;DHT22;13689;48.590;7.752;2023-05-10T04:40:41;15.90;86.90
25871;DHT22;13689;48.590;7.752;2023-05-10T04:43:07;15.90;86.80
25871;DHT22;13689;48.590;7.752;2023-05-10T04:45:32;15.90;86.80
25871;DHT22;13689;48.590;7.752;2023-05-10T04:47:58;15.90;86.90
25871;DHT22;13689;48.590;7.752;2023-05-10T04:50:23;15.80;86.90
25871;DHT22;13689;48.590;7.752;2023-05-10T04:52:49;15.70;87.10
25871;DHT22;13689;48.590;7.752;2023-05-10T04:55:14;15.70;87.30
25871;DHT22;13689;48.590;7.752;2023-05-10T04:57:40;15.70;87.50
25871;DHT22;13689;48.590;7.752;2023-05-10T05:00:05;15.70;87.50
25871;DHT22;13689;48.590;7.752;2023-05-10T05:02:31;15.70;87.50
25871;DHT22;13689;48.590;7.752;2023-05-10T05:04:56;15.70;87.60
25871;DHT22;13689;48.590;7.752;2023-05-10T05:07:23;15.70;87.70
25871;DHT22;13689;48.590;7.752;2023-05-10T05:09:48;15.70;88.60
25871;DHT22;13689;48.590;7.752;2023-05-10T05:12:14;15.70;87.90
25871;DHT22;13689;48.590;7.752;2023-05-10T05:14:39;15.70;87.80
25871;DHT22;13689;48.590;7.752;2023-05-10T05:17:05;15.80;87.80
25871;DHT22;13689;48.590;7.752;2023-05-10T05:19:31;15.90;87.60
25871;DHT22;13689;48.590;7.752;2023-05-10T05:21:56;15.90;87.40
25871;DHT22;13689;48.590;7.752;2023-05-10T05:24:21;16.00;87.40
25871;DHT22;13689;48.590;7.752;2023-05-10T05:26:47;16.00;87.60
25871;DHT22;13689;48.590;7.752;2023-05-10T05:29:13;16.10;87.50
25871;DHT22;13689;48.590;7.752;2023-05-10T05:31:38;16.10;87.20
25871;DHT22;13689;48.590;7.752;2023-05-10T05:34:04;16.10;87.30
25871;DHT22;13689;48.590;7.752;2023-05-10T05:36:29;16.10;87.30
25871;DHT22;13689;48.590;7.752;2023-05-10T05:38:56;16.10;87.30
25871;DHT22;13689;48.590;7.752;2023-05-10T05:41:22;16.10;87.30
25871;DHT22;13689;48.590;7.752;2023-05-10T05:43:52;16.10;87.20
25871;DHT22;13689;48.590;7.752;2023-05-10T05:46:18;16.10;86.90
25871;DHT22;13689;48.590;7.752;2023-05-10T05:48:43;16.10;87.00
25871;DHT22;13689;48.590;7.752;2023-05-10T05:51:09;16.00;87.20
25871;DHT22;13689;48.590;7.752;2023-05-10T05:53:37;16.10;86.90
25871;DHT22;13689;48.590;7.752;2023-05-10T05:56:03;16.10;86.70
25871;DHT22;13689;48.590;7.752;2023-05-10T05:58:29;16.00;86.60
25871;DHT22;13689;48.590;7.752;2023-05-10T06:00:54;15.90;86.80
25871;DHT22;13689;48.590;7.752;2023-05-10T06:03:20;15.80;87.00
25871;DHT22;13689;48.590;7.752;2023-05-10T06:05:45;15.80;87.40
25871;DHT22;13689;48.590;7.752;2023-05-10T06:08:11;15.80;87.60
25871;DHT22;13689;48.590;7.752;2023-05-10T06:10:36;15.80;87.50
25871;DHT22;13689;48.590;7.752;2023-05-10T06:13:02;15.80;87.60
25871;DHT22;13689;48.590;7.752;2023-05-10T06:15:27;15.80;87.90
25871;DHT22;13689;48.590;7.752;2023-05-10T06:17:53;15.90;87.80
25871;DHT22;13689;48.590;7.752;2023-05-10T06:20:18;15.90;87.80
25871;DHT22;13689;48.590;7.752;2023-05-10T06:22:44;15.90;87.70
25871;DHT22;13689;48.590;7.752;2023-05-10T06:25:09;15.90;87.90
25871;DHT22;13689;48.590;7.752;2023-05-10T06:27:35;16.00;88.10
25871;DHT22;13689;48.590;7.752;2023-05-10T06:30:01;16.00;88.00
25871;DHT22;13689;48.590;7.752;2023-05-10T06:32:26;16.00;88.30
25871;DHT22;13689;48.590;7.752;2023-05-10T06:34:52;16.00;88.30
25871;DHT22;13689;48.590;7.752;2023-05-10T06:37:19;16.00;88.10
25871;DHT22;13689;48.590;7.752;2023-05-10T06:39:45;16.10;88.10
25871;DHT22;13689;48.590;7.752;2023-05-10T06:42:11;16.10;87.90
25871;DHT22;13689;48.590;7.752;2023-05-10T06:44:36;16.10;87.80
25871;DHT22;13689;48.590;7.752;2023-05-10T06:47:02;16.10;87.80
25871;DHT22;13689;48.590;7.752;2023-05-10T06:49:27;16.10;87.90
25871;DHT22;13689;48.590;7.752;2023-05-10T06:51:53;16.10;87.70
25871;DHT22;13689;48.590;7.752;2023-05-10T06:54:18;16.10;87.50
25871;DHT22;13689;48.590;7.752;2023-05-10T06:56:47;16.10;87.50
25871;DHT22;13689;48.590;7.752;2023-05-10T06:59:14;16.10;87.40
25871;DHT22;13689;48.590;7.752;2023-05-10T07:01:41;16.10;87.40
25871;DHT22;13689;48.590;7.752;2023-05-10T07:04:07;16.10;87.30
25871;DHT22;13689;48.590;7.752;2023-05-10T07:06:33;16.20;87.20
25871;DHT22;13689;48.590;7.752;2023-05-10T07:08:58;16.30;87.00
25871;DHT22;13689;48.590;7.752;2023-05-10T07:11:24;16.40;86.90
25871;DHT22;13689;48.590;7.752;2023-05-10T07:13:49;16.50;86.70
25871;DHT22;13689;48.590;7.752;2023-05-10T07:16:15;16.70;86.30
25871;DHT22;13689;48.590;7.752;2023-05-10T07:18:40;16.80;86.00
25871;DHT22;13689;48.590;7.752;2023-05-10T07:21:06;16.90;85.60
25871;DHT22;13689;48.590;7.752;2023-05-10T07:23:31;17.00;85.40
25871;DHT22;13689;48.590;7.752;2023-05-10T07:25:57;17.10;85.20
25871;DHT22;13689;48.590;7.752;2023-05-10T07:28:24;17.10;84.90
25871;DHT22;13689;48.590;7.752;2023-05-10T07:30:50;17.20;84.70
25871;DHT22;13689;48.590;7.752;2023-05-10T07:33:15;17.10;84.70
25871;DHT22;13689;48.590;7.752;2023-05-10T07:35:41;17.00;84.60
25871;DHT22;13689;48.590;7.752;2023-05-10T07:38:06;17.00;84.60
25871;DHT22;13689;48.590;7.752;2023-05-10T07:40:32;17.00;84.60
25871;DHT22;13689;48.590;7.752;2023-05-10T07:42:57;17.10;84.60
25871;DHT22;13689;48.590;7.752;2023-05-10T07:45:23;17.20;84.20
25871;DHT22;13689;48.590;7.752;2023-05-10T07:47:49;17.20;83.80
25871;DHT22;13689;48.590;7.752;2023-05-10T07:50:14;17.30;83.70
25871;DHT22;13689;48.590;7.752;2023-05-10T07:52:40;17.40;84.40
25871;DHT22;13689;48.590;7.752;2023-05-10T07:55:06;17.50;83.40
25871;DHT22;13689;48.590;7.752;2023-05-10T07:57:33;17.60;82.90
25871;DHT22;13689;48.590;7.752;2023-05-10T07:59:58;17.70;82.70
25871;DHT22;13689;48.590;7.752;2023-05-10T08:02:24;17.70;82.50
25871;DHT22;13689;48.590;7.752;2023-05-10T08:04:49;17.60;82.40
25871;DHT22;13689;48.590;7.752;2023-05-10T08:07:15;17.50;82.40
25871;DHT22;13689;48.590;7.752;2023-05-10T08:09:40;17.30;82.50
25871;DHT22;13689;48.590;7.752;2023-05-10T08:12:06;17.10;82.60
25871;DHT22;13689;48.590;7.752;2023-05-10T08:14:31;16.80;81.90
25871;DHT22;13689;48.590;7.752;2023-05-10T08:16:57;16.50;82.00
25871;DHT22;13689;48.590;7.752;2023-05-10T08:19:22;16.30;82.70
25871;DHT22;13689;48.590;7.752;2023-05-10T08:21:49;16.10;83.40
25871;DHT22;13689;48.590;7.752;2023-05-10T08:24:14;16.10;83.80
25871;DHT22;13689;48.590;7.752;2023-05-10T08:26:40;16.20;84.20
25871;DHT22;13689;48.590;7.752;2023-05-10T08:29:05;16.40;84.20
25871;DHT22;13689;48.590;7.752;2023-05-10T08:31:31;16.60;84.00
25871;DHT22;13689;48.590;7.752;2023-05-10T08:33:56;16.90;83.50
25871;DHT22;13689;48.590;7.752;2023-05-10T08:36:22;17.20;83.00
25871;DHT22;13689;48.590;7.752;2023-05-10T08:38:50;17.50;82.50
25871;DHT22;13689;48.590;7.752;2023-05-10T08:41:15;17.90;81.90
25871;DHT22;13689;48.590;7.752;2023-05-10T08:43:41;18.20;81.30
25871;DHT22;13689;48.590;7.752;2023-05-10T08:46:11;18.70;80.70
25871;DHT22;13689;48.590;7.752;2023-05-10T08:48:40;19.10;79.90
25871;DHT22;13689;48.590;7.752;2023-05-10T08:51:06;19.60;79.00
25871;DHT22;13689;48.590;7.752;2023-05-10T08:53:33;19.50;78.30
25871;DHT22;13689;48.590;7.752;2023-05-10T08:56:01;19.60;78.30
25871;DHT22;13689;48.590;7.752;2023-05-10T08:58:26;20.40;77.80
25871;DHT22;13689;48.590;7.752;2023-05-10T09:00:52;20.70;76.00
25871;DHT22;13689;48.590;7.752;2023-05-10T09:03:18;20.40;75.30
25871;DHT22;13689;48.590;7.752;2023-05-10T09:05:43;20.90;74.90
25871;DHT22;13689;48.590;7.752;2023-05-10T09:08:10;21.70;73.10
25871;DHT22;13689;48.590;7.752;2023-05-10T09:10:36;22.50;70.70
25871;DHT22;13689;48.590;7.752;2023-05-10T09:13:02;23.30;67.80
25871;DHT22;13689;48.590;7.752;2023-05-10T09:15:30;23.90;65.70
25871;DHT22;13689;48.590;7.752;2023-05-10T09:17:56;24.30;63.80
25871;DHT22;13689;48.590;7.752;2023-05-10T09:20:23;24.50;62.10
25871;DHT22;13689;48.590;7.752;2023-05-10T09:22:49;24.50;61.50
25871;DHT22;13689;48.590;7.752;2023-05-10T09:25:15;24.40;61.00
25871;DHT22;13689;48.590;7.752;2023-05-10T09:27:41;24.40;60.80
25871;DHT22;13689;48.590;7.752;2023-05-10T09:30:09;24.40;60.30
25871;DHT22;13689;48.590;7.752;2023-05-10T09:32:38;24.60;59.90
25871;DHT22;13689;48.590;7.752;2023-05-10T09:35:23;24.80;59.10
25871;DHT22;13689;48.590;7.752;2023-05-10T09:37:50;24.70;58.80
25871;DHT22;13689;48.590;7.752;2023-05-10T09:40:16;24.20;58.40
25871;DHT22;13689;48.590;7.752;2023-05-10T09:42:43;23.70;58.80
25871;DHT22;13689;48.590;7.752;2023-05-10T09:45:15;23.30;59.20
25871;DHT22;13689;48.590;7.752;2023-05-10T09:47:41;23.50;59.40
25871;DHT22;13689;48.590;7.752;2023-05-10T09:50:06;24.30;58.20
25871;DHT22;13689;48.590;7.752;2023-05-10T09:55:13;25.60;55.90
25871;DHT22;13689;48.590;7.752;2023-05-10T09:57:39;26.00;54.50
25871;DHT22;13689;48.590;7.752;2023-05-10T10:00:04;26.50;54.20
25871;DHT22;13689;48.590;7.752;2023-05-10T10:02:30;26.90;52.50
25871;DHT22;13689;48.590;7.752;2023-05-10T10:04:56;26.40;51.40
25871;DHT22;13689;48.590;7.752;2023-05-10T10:07:22;25.20;51.00
25871;DHT22;13689;48.590;7.752;2023-05-10T10:09:48;24.90;52.10
25871;DHT22;13689;48.590;7.752;2023-05-10T10:12:14;25.40;51.40
25871;DHT22;13689;48.590;7.752;2023-05-10T10:14:40;25.30;50.60
25871;DHT22;13689;48.590;7.752;2023-05-10T10:17:05;25.80;49.60
25871;DHT22;13689;48.590;7.752;2023-05-10T10:19:32;25.90;48.80
25871;DHT22;13689;48.590;7.752;2023-05-10T10:21:58;25.80;48.60
25871;DHT22;13689;48.590;7.752;2023-05-10T10:24:24;25.40;48.50
25871;DHT22;13689;48.590;7.752;2023-05-10T10:26:49;25.40;48.30
25871;DHT22;13689;48.590;7.752;2023-05-10T10:29:31;25.40;48.00
25871;DHT22;13689;48.590;7.752;2023-05-10T10:32:37;24.80;47.50
25871;DHT22;13689;48.590;7.752;2023-05-10T10:34:53;24.20;47.60
25871;DHT22;13689;48.590;7.752;2023-05-10T10:37:20;23.70;48.10
25871;DHT22;13689;48.590;7.752;2023-05-10T10:39:47;23.60;48.00
25871;DHT22;13689;48.590;7.752;2023-05-10T10:42:13;23.80;47.30
25871;DHT22;13689;48.590;7.752;2023-05-10T10:44:38;24.30;47.00
25871;DHT22;13689;48.590;7.752;2023-05-10T10:57:49;22.50;46.40
25871;DHT22;13689;48.590;7.752;2023-05-10T11:02:51;22.00;47.00
25871;DHT22;13689;48.590;7.752;2023-05-10T11:08:07;21.70;47.20
25871;DHT22;13689;48.590;7.752;2023-05-10T11:10:33;21.70;47.30
25871;DHT22;13689;48.590;7.752;2023-05-10T11:12:59;21.70;46.90
25871;DHT22;13689;48.590;7.752;2023-05-10T11:15:32;21.70;47.00
25871;DHT22;13689;48.590;7.752;2023-05-10T11:17:58;21.70;47.60
25871;DHT22;13689;48.590;7.752;2023-05-10T11:20:27;21.70;46.90
25871;DHT22;13689;48.590;7.752;2023-05-10T11:23:00;21.80;46.50
25871;DHT22;13689;48.590;7.752;2023-05-10T11:25:39;21.90;46.30
25871;DHT22;13689;48.590;7.752;2023-05-10T11:28:05;22.10;46.10
25871;DHT22;13689;48.590;7.752;2023-05-10T11:30:31;22.40;45.90
25871;DHT22;13689;48.590;7.752;2023-05-10T11:32:56;22.50;45.50
25871;DHT22;13689;48.590;7.752;2023-05-10T11:35:22;22.70;45.50
25871;DHT22;13689;48.590;7.752;2023-05-10T11:37:47;22.60;45.70
25871;DHT22;13689;48.590;7.752;2023-05-10T11:40:13;22.20;45.80
25871;DHT22;13689;48.590;7.752;2023-05-10T11:42:39;22.00;45.90
25871;DHT22;13689;48.590;7.752;2023-05-10T11:45:05;22.10;45.90
25871;DHT22;13689;48.590;7.752;2023-05-10T11:47:31;22.20;45.90
25871;DHT22;13689;48.590;7.752;2023-05-10T11:49:56;22.10;46.00
25871;DHT22;13689;48.590;7.752;2023-05-10T11:52:23;22.10;46.20
25871;DHT22;13689;48.590;7.752;2023-05-10T11:54:52;22.10;46.40
25871;DHT22;13689;48.590;7.752;2023-05-10T11:57:18;21.90;46.60
25871;DHT22;13689;48.590;7.752;2023-05-10T11:59:44;21.80;47.00
25871;DHT22;13689;48.590;7.752;2023-05-10T12:02:11;21.60;47.20
25871;DHT22;13689;48.590;7.752;2023-05-10T12:04:36;21.50;47.30
25871;DHT22;13689;48.590;7.752;2023-05-10T12:07:02;21.50;47.40
25871;DHT22;13689;48.590;7.752;2023-05-10T12:09:28;21.60;47.60
25871;DHT22;13689;48.590;7.752;2023-05-10T12:11:55;21.50;47.50
25871;DHT22;13689;48.590;7.752;2023-05-10T12:14:21;21.60;47.60
25871;DHT22;13689;48.590;7.752;2023-05-10T12:16:47;21.70;47.70
25871;DHT22;13689;48.590;7.752;2023-05-10T12:19:12;21.80;47.50
25871;DHT22;13689;48.590;7.752;2023-05-10T12:21:43;21.80;47.50
25871;DHT22;13689;48.590;7.752;2023-05-10T12:24:09;21.90;47.50
25871;DHT22;13689;48.590;7.752;2023-05-10T12:26:35;21.90;47.40
25871;DHT22;13689;48.590;7.752;2023-05-10T12:29:19;22.00;47.40
25871;DHT22;13689;48.590;7.752;2023-05-10T12:31:48;21.90;47.30
25871;DHT22;13689;48.590;7.752;2023-05-10T12:34:22;21.80;47.60
25871;DHT22;13689;48.590;7.752;2023-05-10T12:36:49;21.70;48.10
25871;DHT22;13689;48.590;7.752;2023-05-10T12:39:15;21.70;48.30
25871;DHT22;13689;48.590;7.752;2023-05-10T12:41:40;21.80;48.40
25871;DHT22;13689;48.590;7.752;2023-05-10T12:44:06;22.00;48.40
25871;DHT22;13689;48.590;7.752;2023-05-10T12:46:31;22.00;48.20
25871;DHT22;13689;48.590;7.752;2023-05-10T12:48:57;22.00;48.40
25871;DHT22;13689;48.590;7.752;2023-05-10T12:51:23;22.00;48.50
25871;DHT22;13689;48.590;7.752;2023-05-10T12:53:48;22.20;48.60
25871;DHT22;13689;48.590;7.752;2023-05-10T12:56:13;22.20;48.70
25871;DHT22;13689;48.590;7.752;2023-05-10T12:58:39;22.20;48.80
25871;DHT22;13689;48.590;7.752;2023-05-10T13:01:05;22.10;48.90
25871;DHT22;13689;48.590;7.752;2023-05-10T13:03:30;21.90;49.00
25871;DHT22;13689;48.590;7.752;2023-05-10T13:05:56;21.70;49.30
25871;DHT22;13689;48.590;7.752;2023-05-10T13:08:21;21.70;49.40
25871;DHT22;13689;48.590;7.752;2023-05-10T13:10:47;21.60;49.50
25871;DHT22;13689;48.590;7.752;2023-05-10T13:13:12;21.50;49.50
25871;DHT22;13689;48.590;7.752;2023-05-10T13:15:38;21.40;49.60
25871;DHT22;13689;48.590;7.752;2023-05-10T13:18:03;21.30;49.60
25871;DHT22;13689;48.590;7.752;2023-05-10T13:20:28;21.30;49.50
25871;DHT22;13689;48.590;7.752;2023-05-10T13:22:54;21.20;49.50
25871;DHT22;13689;48.590;7.752;2023-05-10T13:25:20;21.30;49.50
25871;DHT22;13689;48.590;7.752;2023-05-10T13:27:45;21.30;49.40
25871;DHT22;13689;48.590;7.752;2023-05-10T13:30:11;21.40;49.30
25871;DHT22;13689;48.590;7.752;2023-05-10T13:32:37;21.50;49.20
25871;DHT22;13689;48.590;7.752;2023-05-10T13:35:03;21.60;48.90
25871;DHT22;13689;48.590;7.752;2023-05-10T13:37:29;21.60;48.70
25871;DHT22;13689;48.590;7.752;2023-05-10T13:39:55;21.60;48.70
25871;DHT22;13689;48.590;7.752;2023-05-10T13:42:21;21.60;48.90
25871;DHT22;13689;48.590;7.752;2023-05-10T13:44:47;21.50;49.20
25871;DHT22;13689;48.590;7.752;2023-05-10T13:47:12;21.30;49.50
25871;DHT22;13689;48.590;7.752;2023-05-10T13:49:38;21.10;50.40
25871;DHT22;13689;48.590;7.752;2023-05-10T13:52:03;20.80;51.20
25871;DHT22;13689;48.590;7.752;2023-05-10T13:54:32;20.60;51.90
25871;DHT22;13689;48.590;7.752;2023-05-10T13:56:58;20.40;52.90
25871;DHT22;13689;48.590;7.752;2023-05-10T13:59:24;20.40;53.80
25871;DHT22;13689;48.590;7.752;2023-05-10T14:01:49;20.50;54.20
25871;DHT22;13689;48.590;7.752;2023-05-10T14:04:15;20.50;54.40
25871;DHT22;13689;48.590;7.752;2023-05-10T14:06:40;20.50;54.70
25871;DHT22;13689;48.590;7.752;2023-05-10T14:09:06;20.40;55.00
25871;DHT22;13689;48.590;7.752;2023-05-10T14:11:31;20.30;55.10
25871;DHT22;13689;48.590;7.752;2023-05-10T14:13:57;20.20;55.20
25871;DHT22;13689;48.590;7.752;2023-05-10T14:16:22;20.30;55.10
25871;DHT22;13689;48.590;7.752;2023-05-10T14:18:48;20.50;55.00
25871;DHT22;13689;48.590;7.752;2023-05-10T14:21:13;20.40;54.70
25871;DHT22;13689;48.590;7.752;2023-05-10T14:23:39;20.20;54.90
25871;DHT22;13689;48.590;7.752;2023-05-10T14:26:04;20.10;55.20
25871;DHT22;13689;48.590;7.752;2023-05-10T14:28:30;19.90;55.70
25871;DHT22;13689;48.590;7.752;2023-05-10T14:30:55;19.80;56.30
25871;DHT22;13689;48.590;7.752;2023-05-10T14:33:21;19.70;56.70
25871;DHT22;13689;48.590;7.752;2023-05-10T14:35:47;19.60;57.20
25871;DHT22;13689;48.590;7.752;2023-05-10T14:38:12;19.60;57.50
25871;DHT22;13689;48.590;7.752;2023-05-10T14:40:38;19.80;57.60
25871;DHT22;13689;48.590;7.752;2023-05-10T14:43:03;20.00;57.30
25871;DHT22;13689;48.590;7.752;2023-05-10T14:45:29;20.20;57.10
25871;DHT22;13689;48.590;7.752;2023-05-10T14:47:54;20.20;57.00
25871;DHT22;13689;48.590;7.752;2023-05-10T14:50:20;20.20;56.90
25871;DHT22;13689;48.590;7.752;2023-05-10T14:52:46;20.20;56.90
25871;DHT22;13689;48.590;7.752;2023-05-10T14:55:11;20.20;57.00
25871;DHT22;13689;48.590;7.752;2023-05-10T14:57:37;20.30;57.70
25871;DHT22;13689;48.590;7.752;2023-05-10T15:00:02;20.40;57.00
25871;DHT22;13689;48.590;7.752;2023-05-10T15:02:28;20.50;56.80
25871;DHT22;13689;48.590;7.752;2023-05-10T15:04:54;20.60;56.60
25871;DHT22;13689;48.590;7.752;2023-05-10T15:07:19;20.60;56.40
25871;DHT22;13689;48.590;7.752;2023-05-10T15:09:45;20.60;56.60
25871;DHT22;13689;48.590;7.752;2023-05-10T15:12:11;20.60;56.60
25871;DHT22;13689;48.590;7.752;2023-05-10T15:14:36;20.60;56.50
25871;DHT22;13689;48.590;7.752;2023-05-10T15:17:02;20.50;56.50
25871;DHT22;13689;48.590;7.752;2023-05-10T15:19:27;20.50;56.60
25871;DHT22;13689;48.590;7.752;2023-05-10T15:21:54;20.40;56.50
25871;DHT22;13689;48.590;7.752;2023-05-10T15:24:20;20.40;56.50
25871;DHT22;13689;48.590;7.752;2023-05-10T15:26:46;20.40;56.50
25871;DHT22;13689;48.590;7.752;2023-05-10T15:29:11;20.30;56.50
25871;DHT22;13689;48.590;7.752;2023-05-10T15:31:37;20.30;56.50
25871;DHT22;13689;48.590;7.752;2023-05-10T15:34:02;20.20;56.50
25871;DHT22;13689;48.590;7.752;2023-05-10T15:36:28;20.20;56.60
25871;DHT22;13689;48.590;7.752;2023-05-10T15:38:53;20.30;56.50
25871;DHT22;13689;48.590;7.752;2023-05-10T15:41:19;20.30;56.00
25871;DHT22;13689;48.590;7.752;2023-05-10T15:43:44;20.40;55.50
25871;DHT22;13689;48.590;7.752;2023-05-10T15:46:10;20.70;55.00
25871;DHT22;13689;48.590;7.752;2023-05-10T15:48:35;20.90;54.40
25871;DHT22;13689;48.590;7.752;2023-05-10T15:51:01;21.00;53.90
25871;DHT22;13689;48.590;7.752;2023-05-10T15:53:26;21.00;53.60